sensor_id;sensor_type;location;lat;lon;timestamp;P1;durP1;ratioP1;P2;durP2;ratioP2
9384;SDS011;4732;49.340;10.886;2023-03-23T04:02:51;2.95;;;1.30;;
9384;SDS011;4732;49.340;10.886;2023-03-23T04:05:19;1.35;;;1.10;;
9384;SDS011;4732;49.340;10.886;2023-03-23T04:07:45;1.77;;;1.30;;
9384;SDS011;4732;49.340;10.886;2023-03-23T04:10:14;2.65;;;1.30;;
9384;SDS011;4732;49.340;10.886;2023-03-23T04:12:40;1.38;;;0.93;;
9384;SDS011;4732;49.340;10.886;2023-03-23T04:15:06;1.20;;;1.10;;
9384;SDS011;4732;49.340;10.886;2023-03-23T04:17:32;1.38;;;1.20;;
9384;SDS011;4732;49.340;10.886;2023-03-23T04:19:59;1.80;;;1.10;;
9384;SDS011;4732;49.340;10.886;2023-03-23T04:22:25;1.60;;;1.20;;
9384;SDS011;4732;49.340;10.886;2023-03-23T04:24:55;1.20;;;1.10;;
9384;SDS011;4732;49.340;10.886;2023-03-23T04:27:23;2.08;;;1.20;;
9384;SDS011;4732;49.340;10.886;2023-03-23T04:29:50;1.05;;;0.95;;
9384;SDS011;4732;49.340;10.886;2023-03-23T04:32:15;1.73;;;1.30;;
9384;SDS011;4732;49.340;10.886;2023-03-23T04:34:43;3.03;;;1.08;;
9384;SDS011;4732;49.340;10.886;2023-03-23T04:37:09;2.65;;;1.27;;
9384;SDS011;4732;49.340;10.886;2023-03-23T04:39:34;1.48;;;1.33;;
9384;SDS011;4732;49.340;10.886;2023-03-23T04:42:00;2.45;;;1.13;;
9384;SDS011;4732;49.340;10.886;2023-03-23T04:44:27;1.73;;;1.20;;
9384;SDS011;4732;49.340;10.886;2023-03-23T04:46:52;3.28;;;1.25;;
9384;SDS011;4732;49.340;10.886;2023-03-23T04:49:19;3.03;;;1.25;;
9384;SDS011;4732;49.340;10.886;2023-03-23T04:51:47;4.03;;;1.65;;
9384;SDS011;4732;49.340;10.886;2023-03-23T04:54:15;1.90;;;0.95;;
9384;SDS011;4732;49.340;10.886;2023-03-23T04:56:41;2.67;;;1.20;;
9384;SDS011;4732;49.340;10.886;2023-03-23T04:59:06;1.38;;;1.20;;
9384;SDS011;4732;49.340;10.886;2023-03-23T05:01:32;1.40;;;1.05;;
9384;SDS011;4732;49.340;10.886;2023-03-23T05:03:59;1.10;;;1.00;;
9384;SDS011;4732;49.340;10.886;2023-03-23T05:06:25;1.42;;;1.17;;
9384;SDS011;4732;49.340;10.886;2023-03-23T05:08:51;1.05;;;0.95;;
9384;SDS011;4732;49.340;10.886;2023-03-23T05:11:16;1.42;;;1.10;;
9384;SDS011;4732;49.340;10.886;2023-03-23T05:13:42;1.65;;;1.08;;
9384;SDS011;4732;49.340;10.886;2023-03-23T05:16:09;2.20;;;1.05;;
9384;SDS011;4732;49.340;10.886;2023-03-23T05:18:34;2.60;;;1.20;;
9384;SDS011;4732;49.340;10.886;2023-03-23T05:21:00;10.80;;;1.98;;
9384;SDS011;4732;49.340;10.886;2023-03-23T05:23:27;9.15;;;4.95;;
9384;SDS011;4732;49.340;10.886;2023-03-23T05:25:56;4.35;;;2.58;;
9384;SDS011;4732;49.340;10.886;2023-03-23T05:28:25;2.05;;;1.35;;
9384;SDS011;4732;49.340;10.886;2023-03-23T05:30:55;1.95;;;1.20;;
9384;SDS011;4732;49.340;10.886;2023-03-23T05:33:21;3.28;;;1.20;;
9384;SDS011;4732;49.340;10.886;2023-03-23T05:35:47;2.10;;;1.45;;
9384;SDS011;4732;49.340;10.886;2023-03-23T05:38:13;2.95;;;1.13;;
9384;SDS011;4732;49.340;10.886;2023-03-23T05:40:39;6.80;;;1.90;;
9384;SDS011;4732;49.340;10.886;2023-03-23T05:43:06;2.55;;;1.95;;
9384;SDS011;4732;49.340;10.886;2023-03-23T05:45:32;3.60;;;1.65;;
9384;SDS011;4732;49.340;10.886;2023-03-23T05:47:58;2.22;;;1.60;;
9384;SDS011;4732;49.340;10.886;2023-03-23T05:50:23;1.55;;;1.27;;
9384;SDS011;4732;49.340;10.886;2023-03-23T05:52:49;1.63;;;1.30;;
9384;SDS011;4732;49.340;10.886;2023-03-23T05:55:15;3.13;;;1.30;;
9384;SDS011;4732;49.340;10.886;2023-03-23T05:57:40;4.07;;;1.23;;
9384;SDS011;4732;49.340;10.886;2023-03-23T06:00:07;2.22;;;1.25;;
9384;SDS011;4732;49.340;10.886;2023-03-23T06:02:39;2.00;;;1.60;;
9384;SDS011;4732;49.340;10.886;2023-03-23T06:05:08;2.00;;;1.80;;
9384;SDS011;4732;49.340;10.886;2023-03-23T06:07:34;2.92;;;1.33;;
9384;SDS011;4732;49.340;10.886;2023-03-23T06:10:00;3.35;;;1.65;;
9384;SDS011;4732;49.340;10.886;2023-03-23T06:12:26;2.25;;;1.83;;
9384;SDS011;4732;49.340;10.886;2023-03-23T06:14:51;2.63;;;1.90;;
9384;SDS011;4732;49.340;10.886;2023-03-23T06:17:17;2.42;;;1.50;;
9384;SDS011;4732;49.340;10.886;2023-03-23T06:19:43;1.65;;;1.50;;
9384;SDS011;4732;49.340;10.886;2023-03-23T06:22:10;4.28;;;1.80;;
9384;SDS011;4732;49.340;10.886;2023-03-23T06:24:36;6.35;;;2.10;;
9384;SDS011;4732;49.340;10.886;2023-03-23T06:27:01;10.07;;;7.75;;
9384;SDS011;4732;49.340;10.886;2023-03-23T06:29:27;5.20;;;3.60;;
9384;SDS011;4732;49.340;10.886;2023-03-23T06:31:55;4.05;;;2.45;;
9384;SDS011;4732;49.340;10.886;2023-03-23T06:34:24;3.35;;;2.10;;
9384;SDS011;4732;49.340;10.886;2023-03-23T06:36:50;2.60;;;2.05;;
9384;SDS011;4732;49.340;10.886;2023-03-23T06:39:15;2.70;;;2.30;;
9384;SDS011;4732;49.340;10.886;2023-03-23T06:41:41;4.03;;;2.50;;
9384;SDS011;4732;49.340;10.886;2023-03-23T06:44:07;2.97;;;1.80;;
9384;SDS011;4732;49.340;10.886;2023-03-23T06:46:33;6.53;;;4.70;;
9384;SDS011;4732;49.340;10.886;2023-03-23T06:48:59;6.47;;;4.55;;
9384;SDS011;4732;49.340;10.886;2023-03-23T06:51:25;3.70;;;2.83;;
9384;SDS011;4732;49.340;10.886;2023-03-23T06:53:50;3.65;;;2.95;;
9384;SDS011;4732;49.340;10.886;2023-03-23T06:56:16;5.38;;;4.03;;
9384;SDS011;4732;49.340;10.886;2023-03-23T06:58:41;5.40;;;2.90;;
9384;SDS011;4732;49.340;10.886;2023-03-23T07:01:07;10.88;;;6.03;;
9384;SDS011;4732;49.340;10.886;2023-03-23T07:03:34;15.02;;;9.88;;
9384;SDS011;4732;49.340;10.886;2023-03-23T07:06:00;11.80;;;8.48;;
9384;SDS011;4732;49.340;10.886;2023-03-23T07:08:26;13.93;;;8.35;;
9384;SDS011;4732;49.340;10.886;2023-03-23T07:10:52;24.92;;;14.40;;
9384;SDS011;4732;49.340;10.886;2023-03-23T07:13:19;28.83;;;16.40;;
9384;SDS011;4732;49.340;10.886;2023-03-23T07:15:45;13.65;;;8.02;;
9384;SDS011;4732;49.340;10.886;2023-03-23T07:18:11;24.67;;;13.75;;
9384;SDS011;4732;49.340;10.886;2023-03-23T07:20:37;6.85;;;4.82;;
9384;SDS011;4732;49.340;10.886;2023-03-23T07:23:02;9.32;;;6.05;;
9384;SDS011;4732;49.340;10.886;2023-03-23T07:25:30;12.02;;;5.90;;
9384;SDS011;4732;49.340;10.886;2023-03-23T07:27:57;4.10;;;2.80;;
9384;SDS011;4732;49.340;10.886;2023-03-23T07:30:24;4.60;;;3.10;;
9384;SDS011;4732;49.340;10.886;2023-03-23T07:32:51;4.22;;;2.30;;
9384;SDS011;4732;49.340;10.886;2023-03-23T07:35:16;9.25;;;6.53;;
9384;SDS011;4732;49.340;10.886;2023-03-23T07:37:42;4.22;;;3.35;;
9384;SDS011;4732;49.340;10.886;2023-03-23T07:40:08;7.18;;;3.10;;
9384;SDS011;4732;49.340;10.886;2023-03-23T07:42:40;5.65;;;3.92;;
9384;SDS011;4732;49.340;10.886;2023-03-23T07:45:10;5.43;;;3.78;;
9384;SDS011;4732;49.340;10.886;2023-03-23T07:47:38;4.43;;;2.15;;
9384;SDS011;4732;49.340;10.886;2023-03-23T07:50:07;4.65;;;2.25;;
9384;SDS011;4732;49.340;10.886;2023-03-23T07:52:34;2.78;;;1.80;;
9384;SDS011;4732;49.340;10.886;2023-03-23T07:55:01;4.45;;;2.20;;
9384;SDS011;4732;49.340;10.886;2023-03-23T07:57:28;5.60;;;2.10;;
9384;SDS011;4732;49.340;10.886;2023-03-23T07:59:55;3.53;;;2.20;;
9384;SDS011;4732;49.340;10.886;2023-03-23T08:02:21;3.72;;;2.03;;
9384;SDS011;4732;49.340;10.886;2023-03-23T08:04:47;3.63;;;2.10;;
9384;SDS011;4732;49.340;10.886;2023-03-23T08:07:13;4.82;;;2.45;;
9384;SDS011;4732;49.340;10.886;2023-03-23T08:09:41;3.22;;;2.22;;
9384;SDS011;4732;49.340;10.886;2023-03-23T08:12:07;4.28;;;2.10;;
9384;SDS011;4732;49.340;10.886;2023-03-23T08:14:32;3.05;;;2.22;;
9384;SDS011;4732;49.340;10.886;2023-03-23T08:16:58;5.22;;;2.55;;
9384;SDS011;4732;49.340;10.886;2023-03-23T08:19:24;5.65;;;2.65;;
9384;SDS011;4732;49.340;10.886;2023-03-23T08:21:49;3.92;;;2.55;;
9384;SDS011;4732;49.340;10.886;2023-03-23T08:24:15;3.50;;;2.53;;
9384;SDS011;4732;49.340;10.886;2023-03-23T08:26:41;3.60;;;2.55;;
9384;SDS011;4732;49.340;10.886;2023-03-23T08:29:07;2.75;;;2.22;;
9384;SDS011;4732;49.340;10.886;2023-03-23T08:31:33;3.15;;;2.55;;
9384;SDS011;4732;49.340;10.886;2023-03-23T08:34:00;7.43;;;2.85;;
9384;SDS011;4732;49.340;10.886;2023-03-23T08:36:26;4.10;;;2.53;;
9384;SDS011;4732;49.340;10.886;2023-03-23T08:38:53;3.50;;;2.70;;
9384;SDS011;4732;49.340;10.886;2023-03-23T08:41:19;8.18;;;2.90;;
9384;SDS011;4732;49.340;10.886;2023-03-23T08:43:45;6.00;;;3.40;;
9384;SDS011;4732;49.340;10.886;2023-03-23T08:46:11;4.60;;;2.80;;
9384;SDS011;4732;49.340;10.886;2023-03-23T08:48:37;3.30;;;2.35;;
9384;SDS011;4732;49.340;10.886;2023-03-23T08:51:03;5.10;;;2.60;;
9384;SDS011;4732;49.340;10.886;2023-03-23T08:53:30;3.38;;;2.50;;
9384;SDS011;4732;49.340;10.886;2023-03-23T08:55:56;3.72;;;3.10;;
9384;SDS011;4732;49.340;10.886;2023-03-23T08:58:27;3.25;;;2.95;;
9384;SDS011;4732;49.340;10.886;2023-03-23T09:00:54;3.65;;;2.97;;
9384;SDS011;4732;49.340;10.886;2023-03-23T09:03:19;3.92;;;3.13;;
9384;SDS011;4732;49.340;10.886;2023-03-23T09:05:45;4.50;;;3.20;;
9384;SDS011;4732;49.340;10.886;2023-03-23T09:08:11;4.50;;;2.88;;
9384;SDS011;4732;49.340;10.886;2023-03-23T09:10:37;4.13;;;2.65;;
9384;SDS011;4732;49.340;10.886;2023-03-23T09:13:04;4.97;;;4.05;;
9384;SDS011;4732;49.340;10.886;2023-03-23T09:15:30;4.85;;;3.10;;
9384;SDS011;4732;49.340;10.886;2023-03-23T09:17:56;9.50;;;5.40;;
9384;SDS011;4732;49.340;10.886;2023-03-23T09:20:23;6.80;;;4.90;;
9384;SDS011;4732;49.340;10.886;2023-03-23T09:22:51;5.60;;;4.43;;
9384;SDS011;4732;49.340;10.886;2023-03-23T09:25:20;7.32;;;6.20;;
9384;SDS011;4732;49.340;10.886;2023-03-23T09:27:51;4.38;;;3.42;;
9384;SDS011;4732;49.340;10.886;2023-03-23T09:30:21;3.55;;;2.92;;
9384;SDS011;4732;49.340;10.886;2023-03-23T09:32:47;3.05;;;2.45;;
9384;SDS011;4732;49.340;10.886;2023-03-23T09:35:13;6.00;;;2.90;;
9384;SDS011;4732;49.340;10.886;2023-03-23T09:37:41;4.13;;;2.80;;
9384;SDS011;4732;49.340;10.886;2023-03-23T09:40:13;3.38;;;2.80;;
9384;SDS011;4732;49.340;10.886;2023-03-23T09:51:13;4.03;;;2.42;;
9384;SDS011;4732;49.340;10.886;2023-03-23T09:53:42;3.97;;;2.55;;
9384;SDS011;4732;49.340;10.886;2023-03-23T09:56:12;4.70;;;2.22;;
9384;SDS011;4732;49.340;10.886;2023-03-23T09:58:53;4.88;;;2.28;;
9384;SDS011;4732;49.340;10.886;2023-03-23T10:01:30;4.40;;;2.58;;
9384;SDS011;4732;49.340;10.886;2023-03-23T10:04:02;4.40;;;2.42;;
9384;SDS011;4732;49.340;10.886;2023-03-23T10:06:35;4.57;;;2.50;;
9384;SDS011;4732;49.340;10.886;2023-03-23T10:09:02;4.18;;;2.45;;
9384;SDS011;4732;49.340;10.886;2023-03-23T10:16:55;3.50;;;2.45;;
9384;SDS011;4732;49.340;10.886;2023-03-23T10:22:01;3.72;;;2.40;;
9384;SDS011;4732;49.340;10.886;2023-03-23T10:24:35;4.70;;;1.95;;
9384;SDS011;4732;49.340;10.886;2023-03-23T10:27:11;4.18;;;1.50;;
9384;SDS011;4732;49.340;10.886;2023-03-23T10:32:45;2.35;;;1.88;;
9384;SDS011;4732;49.340;10.886;2023-03-23T10:35:43;3.35;;;1.50;;
9384;SDS011;4732;49.340;10.886;2023-03-23T10:38:17;2.08;;;1.73;;
9384;SDS011;4732;49.340;10.886;2023-03-23T10:40:49;3.17;;;1.95;;
9384;SDS011;4732;49.340;10.886;2023-03-23T10:43:18;3.13;;;1.90;;
9384;SDS011;4732;49.340;10.886;2023-03-23T10:45:45;5.20;;;1.63;;
9384;SDS011;4732;49.340;10.886;2023-03-23T10:48:22;1.77;;;1.48;;
9384;SDS011;4732;49.340;10.886;2023-03-23T10:50:55;3.72;;;1.83;;
9384;SDS011;4732;49.340;10.886;2023-03-23T10:53:25;2.30;;;1.60;;
9384;SDS011;4732;49.340;10.886;2023-03-23T10:56:01;2.97;;;1.63;;
9384;SDS011;4732;49.340;10.886;2023-03-23T10:58:31;2.00;;;1.33;;
9384;SDS011;4732;49.340;10.886;2023-03-23T11:00:59;1.80;;;1.60;;
9384;SDS011;4732;49.340;10.886;2023-03-23T11:03:29;2.03;;;1.58;;
9384;SDS011;4732;49.340;10.886;2023-03-23T11:05:59;5.53;;;1.70;;
9384;SDS011;4732;49.340;10.886;2023-03-23T11:08:29;2.00;;;1.58;;
9384;SDS011;4732;49.340;10.886;2023-03-23T11:11:09;3.38;;;1.77;;
9384;SDS011;4732;49.340;10.886;2023-03-23T11:13:44;3.45;;;1.83;;
9384;SDS011;4732;49.340;10.886;2023-03-23T11:16:24;2.35;;;1.80;;
9384;SDS011;4732;49.340;10.886;2023-03-23T11:18:51;2.67;;;1.70;;
9384;SDS011;4732;49.340;10.886;2023-03-23T11:21:17;2.67;;;1.70;;
9384;SDS011;4732;49.340;10.886;2023-03-23T11:23:58;2.78;;;1.60;;
9384;SDS011;4732;49.340;10.886;2023-03-23T11:26:28;3.28;;;1.85;;
9384;SDS011;4732;49.340;10.886;2023-03-23T11:29:06;3.38;;;1.70;;
9384;SDS011;4732;49.340;10.886;2023-03-23T11:31:35;2.38;;;1.90;;
9384;SDS011;4732;49.340;10.886;2023-03-23T11:34:08;1.92;;;1.50;;
9384;SDS011;4732;49.340;10.886;2023-03-23T11:36:36;4.00;;;1.40;;
9384;SDS011;4732;49.340;10.886;2023-03-23T11:39:18;2.42;;;1.60;;
9384;SDS011;4732;49.340;10.886;2023-03-23T11:41:52;1.98;;;1.40;;
9384;SDS011;4732;49.340;10.886;2023-03-23T11:44:20;4.22;;;1.67;;
9384;SDS011;4732;49.340;10.886;2023-03-23T11:47:01;2.88;;;1.40;;
9384;SDS011;4732;49.340;10.886;2023-03-23T11:52:26;3.30;;;1.10;;
9384;SDS011;4732;49.340;10.886;2023-03-23T11:57:52;1.50;;;1.38;;
9384;SDS011;4732;49.340;10.886;2023-03-23T12:00:22;1.50;;;1.33;;
9384;SDS011;4732;49.340;10.886;2023-03-23T12:08:37;5.25;;;1.40;;
9384;SDS011;4732;49.340;10.886;2023-03-23T12:17:03;2.88;;;1.50;;
9384;SDS011;4732;49.340;10.886;2023-03-23T12:22:55;2.65;;;1.30;;
9384;SDS011;4732;49.340;10.886;2023-03-23T12:31:12;2.58;;;1.20;;
9384;SDS011;4732;49.340;10.886;2023-03-23T12:33:59;1.63;;;1.38;;
9384;SDS011;4732;49.340;10.886;2023-03-23T12:44:50;1.67;;;1.25;;
9384;SDS011;4732;49.340;10.886;2023-03-23T12:47:39;2.35;;;1.30;;
9384;SDS011;4732;49.340;10.886;2023-03-23T12:50:16;7.13;;;1.40;;
9384;SDS011;4732;49.340;10.886;2023-03-23T12:55:48;1.52;;;1.23;;
9384;SDS011;4732;49.340;10.886;2023-03-23T12:58:19;3.05;;;1.10;;
9384;SDS011;4732;49.340;10.886;2023-03-23T13:03:39;1.58;;;1.27;;
9384;SDS011;4732;49.340;10.886;2023-03-23T13:06:23;1.35;;;1.08;;
9384;SDS011;4732;49.340;10.886;2023-03-23T13:11:33;1.80;;;1.30;;
9384;SDS011;4732;49.340;10.886;2023-03-23T13:14:14;1.15;;;1.00;;
9384;SDS011;4732;49.340;10.886;2023-03-23T13:23:04;2.17;;;1.10;;
9384;SDS011;4732;49.340;10.886;2023-03-23T13:28:14;2.88;;;1.10;;
9384;SDS011;4732;49.340;10.886;2023-03-23T13:30:52;2.63;;;1.30;;
9384;SDS011;4732;49.340;10.886;2023-03-23T13:33:19;1.95;;;1.17;;
9384;SDS011;4732;49.340;10.886;2023-03-23T13:35:46;1.50;;;1.17;;
9384;SDS011;4732;49.340;10.886;2023-03-23T13:38:24;2.72;;;1.17;;
9384;SDS011;4732;49.340;10.886;2023-03-23T13:40:55;3.00;;;1.05;;
9384;SDS011;4732;49.340;10.886;2023-03-23T13:43:29;1.58;;;1.20;;
9384;SDS011;4732;49.340;10.886;2023-03-23T13:46:07;1.33;;;1.20;;
9384;SDS011;4732;49.340;10.886;2023-03-23T13:48:42;2.55;;;1.13;;
9384;SDS011;4732;49.340;10.886;2023-03-23T13:51:33;3.08;;;1.25;;
9384;SDS011;4732;49.340;10.886;2023-03-23T13:54:23;1.75;;;1.20;;
9384;SDS011;4732;49.340;10.886;2023-03-23T13:57:20;3.28;;;1.60;;
9384;SDS011;4732;49.340;10.886;2023-03-23T13:59:55;1.98;;;1.60;;
9384;SDS011;4732;49.340;10.886;2023-03-23T14:02:29;1.88;;;1.55;;
9384;SDS011;4732;49.340;10.886;2023-03-23T14:05:23;1.98;;;1.70;;
9384;SDS011;4732;49.340;10.886;2023-03-23T14:07:56;2.10;;;1.60;;
9384;SDS011;4732;49.340;10.886;2023-03-23T14:10:33;2.03;;;1.40;;
9384;SDS011;4732;49.340;10.886;2023-03-23T14:19:03;1.65;;;1.45;;
9384;SDS011;4732;49.340;10.886;2023-03-23T14:21:40;1.40;;;1.30;;
9384;SDS011;4732;49.340;10.886;2023-03-23T14:24:17;2.55;;;1.33;;
9384;SDS011;4732;49.340;10.886;2023-03-23T14:26:53;3.78;;;1.42;;
9384;SDS011;4732;49.340;10.886;2023-03-23T14:29:26;2.78;;;1.58;;
9384;SDS011;4732;49.340;10.886;2023-03-23T14:31:53;2.33;;;1.30;;
9384;SDS011;4732;49.340;10.886;2023-03-23T14:34:21;1.75;;;1.48;;
9384;SDS011;4732;49.340;10.886;2023-03-23T14:36:54;1.83;;;1.40;;
9384;SDS011;4732;49.340;10.886;2023-03-23T14:39:30;1.38;;;1.27;;
9384;SDS011;4732;49.340;10.886;2023-03-23T14:42:16;2.00;;;1.48;;
9384;SDS011;4732;49.340;10.886;2023-03-23T14:44:46;1.50;;;1.40;;
9384;SDS011;4732;49.340;10.886;2023-03-23T14:47:16;2.45;;;1.35;;
9384;SDS011;4732;49.340;10.886;2023-03-23T14:49:45;2.03;;;1.40;;
9384;SDS011;4732;49.340;10.886;2023-03-23T14:52:11;4.60;;;1.85;;
9384;SDS011;4732;49.340;10.886;2023-03-23T14:54:38;1.98;;;1.60;;
9384;SDS011;4732;49.340;10.886;2023-03-23T14:57:13;2.78;;;1.85;;
9384;SDS011;4732;49.340;10.886;2023-03-23T14:59:44;2.38;;;1.70;;
9384;SDS011;4732;49.340;10.886;2023-03-23T15:02:17;2.58;;;1.98;;
9384;SDS011;4732;49.340;10.886;2023-03-23T15:04:56;3.15;;;1.70;;
9384;SDS011;4732;49.340;10.886;2023-03-23T15:07:26;1.48;;;1.30;;
9384;SDS011;4732;49.340;10.886;2023-03-23T15:09:59;2.20;;;1.67;;
9384;SDS011;4732;49.340;10.886;2023-03-23T15:12:25;2.60;;;1.65;;
9384;SDS011;4732;49.340;10.886;2023-03-23T15:14:55;2.63;;;1.98;;
9384;SDS011;4732;49.340;10.886;2023-03-23T15:17:23;4.15;;;1.75;;
9384;SDS011;4732;49.340;10.886;2023-03-23T15:19:51;2.42;;;1.80;;
9384;SDS011;4732;49.340;10.886;2023-03-23T15:24:46;2.30;;;1.55;;
9384;SDS011;4732;49.340;10.886;2023-03-23T15:27:17;2.50;;;1.90;;
9384;SDS011;4732;49.340;10.886;2023-03-23T15:29:52;2.08;;;1.60;;
9384;SDS011;4732;49.340;10.886;2023-03-23T15:32:20;1.85;;;1.60;;
9384;SDS011;4732;49.340;10.886;2023-03-23T15:34:47;1.75;;;1.55;;
9384;SDS011;4732;49.340;10.886;2023-03-23T15:37:20;2.40;;;1.90;;
9384;SDS011;4732;49.340;10.886;2023-03-23T15:39:55;1.58;;;1.48;;
9384;SDS011;4732;49.340;10.886;2023-03-23T15:42:31;2.33;;;1.90;;
9384;SDS011;4732;49.340;10.886;2023-03-23T15:50:17;1.92;;;1.70;;
9384;SDS011;4732;49.340;10.886;2023-03-23T15:52:45;3.08;;;1.90;;
9384;SDS011;4732;49.340;10.886;2023-03-23T15:57:44;2.42;;;1.83;;
9384;SDS011;4732;49.340;10.886;2023-03-23T16:00:10;1.67;;;1.38;;
9384;SDS011;4732;49.340;10.886;2023-03-23T16:02:36;2.47;;;1.73;;
9384;SDS011;4732;49.340;10.886;2023-03-23T16:05:01;1.75;;;1.58;;
9384;SDS011;4732;49.340;10.886;2023-03-23T16:07:27;2.05;;;1.55;;
9384;SDS011;4732;49.340;10.886;2023-03-23T16:09:53;1.92;;;1.70;;
9384;SDS011;4732;49.340;10.886;2023-03-23T16:12:18;3.20;;;1.65;;
9384;SDS011;4732;49.340;10.886;2023-03-23T16:14:44;5.68;;;1.73;;
9384;SDS011;4732;49.340;10.886;2023-03-23T16:17:10;2.42;;;1.60;;
9384;SDS011;4732;49.340;10.886;2023-03-23T16:19:39;2.08;;;1.67;;
9384;SDS011;4732;49.340;10.886;2023-03-23T16:22:05;2.67;;;1.77;;
9384;SDS011;4732;49.340;10.886;2023-03-23T16:24:31;2.25;;;2.05;;
9384;SDS011;4732;49.340;10.886;2023-03-23T16:26:56;2.80;;;2.00;;
9384;SDS011;4732;49.340;10.886;2023-03-23T16:29:22;2.55;;;2.28;;
9384;SDS011;4732;49.340;10.886;2023-03-23T16:31:47;2.10;;;1.90;;
9384;SDS011;4732;49.340;10.886;2023-03-23T16:34:13;4.40;;;2.17;;
9384;SDS011;4732;49.340;10.886;2023-03-23T16:36:38;2.53;;;2.00;;
9384;SDS011;4732;49.340;10.886;2023-03-23T16:39:04;2.40;;;2.20;;
9384;SDS011;4732;49.340;10.886;2023-03-23T16:41:29;2.20;;;2.00;;
9384;SDS011;4732;49.340;10.886;2023-03-23T16:43:55;2.70;;;1.70;;
9384;SDS011;4732;49.340;10.886;2023-03-23T16:46:21;1.98;;;1.77;;
9384;SDS011;4732;49.340;10.886;2023-03-23T16:48:46;1.80;;;1.58;;
9384;SDS011;4732;49.340;10.886;2023-03-23T16:51:12;1.73;;;1.42;;
9384;SDS011;4732;49.340;10.886;2023-03-23T16:53:37;1.75;;;1.63;;
9384;SDS011;4732;49.340;10.886;2023-03-23T16:56:03;3.55;;;1.80;;
9384;SDS011;4732;49.340;10.886;2023-03-23T16:58:29;2.03;;;1.55;;
9384;SDS011;4732;49.340;10.886;2023-03-23T17:00:55;1.80;;;1.52;;
9384;SDS011;4732;49.340;10.886;2023-03-23T17:03:20;2.70;;;2.50;;
9384;SDS011;4732;49.340;10.886;2023-03-23T17:05:47;6.68;;;5.97;;
9384;SDS011;4732;49.340;10.886;2023-03-23T17:08:14;7.32;;;6.38;;
9384;SDS011;4732;49.340;10.886;2023-03-23T17:10:40;4.53;;;2.60;;
9384;SDS011;4732;49.340;10.886;2023-03-23T17:13:07;3.03;;;2.25;;
9384;SDS011;4732;49.340;10.886;2023-03-23T17:15:37;6.00;;;2.40;;
9384;SDS011;4732;49.340;10.886;2023-03-23T17:18:04;4.35;;;3.10;;
9384;SDS011;4732;49.340;10.886;2023-03-23T17:20:30;2.92;;;2.63;;
9384;SDS011;4732;49.340;10.886;2023-03-23T17:22:56;6.70;;;3.97;;
9384;SDS011;4732;49.340;10.886;2023-03-23T17:25:23;3.40;;;3.00;;
9384;SDS011;4732;49.340;10.886;2023-03-23T17:27:49;5.78;;;3.95;;
9384;SDS011;4732;49.340;10.886;2023-03-23T17:30:15;3.63;;;3.20;;
9384;SDS011;4732;49.340;10.886;2023-03-23T17:32:41;4.57;;;3.13;;
9384;SDS011;4732;49.340;10.886;2023-03-23T17:35:07;6.38;;;3.40;;
9384;SDS011;4732;49.340;10.886;2023-03-23T17:37:33;3.92;;;3.50;;
9384;SDS011;4732;49.340;10.886;2023-03-23T17:40:00;4.43;;;2.85;;
9384;SDS011;4732;49.340;10.886;2023-03-23T17:42:25;2.55;;;2.35;;
9384;SDS011;4732;49.340;10.886;2023-03-23T17:44:51;2.42;;;2.22;;
9384;SDS011;4732;49.340;10.886;2023-03-23T17:47:17;3.70;;;2.50;;
9384;SDS011;4732;49.340;10.886;2023-03-23T17:49:42;2.85;;;2.30;;
9384;SDS011;4732;49.340;10.886;2023-03-23T17:52:08;3.92;;;2.60;;
9384;SDS011;4732;49.340;10.886;2023-03-23T17:54:33;2.50;;;2.20;;
9384;SDS011;4732;49.340;10.886;2023-03-23T17:56:59;3.50;;;2.85;;
9384;SDS011;4732;49.340;10.886;2023-03-23T17:59:27;4.65;;;2.35;;
9384;SDS011;4732;49.340;10.886;2023-03-23T18:01:53;5.55;;;3.20;;
9384;SDS011;4732;49.340;10.886;2023-03-23T18:04:19;11.82;;;5.90;;
9384;SDS011;4732;49.340;10.886;2023-03-23T18:06:46;9.80;;;5.05;;
9384;SDS011;4732;49.340;10.886;2023-03-23T18:09:12;4.53;;;3.20;;
9384;SDS011;4732;49.340;10.886;2023-03-23T18:11:38;3.55;;;2.45;;
9384;SDS011;4732;49.340;10.886;2023-03-23T18:14:04;5.18;;;2.47;;
9384;SDS011;4732;49.340;10.886;2023-03-23T18:16:30;4.53;;;2.35;;
9384;SDS011;4732;49.340;10.886;2023-03-23T18:18:56;3.50;;;2.28;;
9384;SDS011;4732;49.340;10.886;2023-03-23T18:21:21;4.28;;;2.15;;
9384;SDS011;4732;49.340;10.886;2023-03-23T18:23:47;10.60;;;2.90;;
9384;SDS011;4732;49.340;10.886;2023-03-23T18:26:14;12.95;;;2.55;;
9384;SDS011;4732;49.340;10.886;2023-03-23T18:28:40;14.95;;;7.47;;
9384;SDS011;4732;49.340;10.886;2023-03-23T18:31:11;10.65;;;6.80;;
9384;SDS011;4732;49.340;10.886;2023-03-23T18:33:39;8.82;;;6.95;;
9384;SDS011;4732;49.340;10.886;2023-03-23T18:36:06;5.22;;;3.55;;
9384;SDS011;4732;49.340;10.886;2023-03-23T18:38:33;3.50;;;2.00;;
9384;SDS011;4732;49.340;10.886;2023-03-23T18:40:59;5.90;;;4.55;;
9384;SDS011;4732;49.340;10.886;2023-03-23T18:43:25;6.10;;;5.47;;
9384;SDS011;4732;49.340;10.886;2023-03-23T18:45:52;4.20;;;2.80;;
9384;SDS011;4732;49.340;10.886;2023-03-23T18:48:19;17.58;;;7.32;;
9384;SDS011;4732;49.340;10.886;2023-03-23T18:50:49;8.05;;;4.60;;
9384;SDS011;4732;49.340;10.886;2023-03-23T18:53:17;45.40;;;15.68;;
9384;SDS011;4732;49.340;10.886;2023-03-23T18:55:44;5.03;;;3.00;;
9384;SDS011;4732;49.340;10.886;2023-03-23T18:58:10;27.98;;;9.85;;
9384;SDS011;4732;49.340;10.886;2023-03-23T19:00:38;22.42;;;8.95;;
9384;SDS011;4732;49.340;10.886;2023-03-23T19:03:04;21.08;;;8.75;;
9384;SDS011;4732;49.340;10.886;2023-03-23T19:05:31;40.55;;;13.88;;
9384;SDS011;4732;49.340;10.886;2023-03-23T19:07:58;13.90;;;6.55;;
9384;SDS011;4732;49.340;10.886;2023-03-23T19:10:24;3.75;;;2.63;;
9384;SDS011;4732;49.340;10.886;2023-03-23T19:12:50;11.02;;;4.97;;
9384;SDS011;4732;49.340;10.886;2023-03-23T19:15:16;12.15;;;5.75;;
9384;SDS011;4732;49.340;10.886;2023-03-23T19:17:42;11.25;;;5.32;;
9384;SDS011;4732;49.340;10.886;2023-03-23T19:20:09;12.63;;;6.50;;
9384;SDS011;4732;49.340;10.886;2023-03-23T19:22:35;7.57;;;4.25;;
9384;SDS011;4732;49.340;10.886;2023-03-23T19:25:02;16.63;;;9.20;;
9384;SDS011;4732;49.340;10.886;2023-03-23T19:27:28;14.73;;;7.30;;
9384;SDS011;4732;49.340;10.886;2023-03-23T19:29:54;8.68;;;4.10;;
9384;SDS011;4732;49.340;10.886;2023-03-23T19:32:20;14.55;;;7.82;;
9384;SDS011;4732;49.340;10.886;2023-03-23T19:34:45;5.68;;;3.17;;
9384;SDS011;4732;49.340;10.886;2023-03-23T19:37:11;10.90;;;5.55;;
9384;SDS011;4732;49.340;10.886;2023-03-23T19:39:36;18.05;;;9.02;;
9384;SDS011;4732;49.340;10.886;2023-03-23T19:42:03;12.57;;;5.97;;
9384;SDS011;4732;49.340;10.886;2023-03-23T19:44:30;7.90;;;4.55;;
9384;SDS011;4732;49.340;10.886;2023-03-23T19:46:56;9.80;;;4.97;;
9384;SDS011;4732;49.340;10.886;2023-03-23T19:49:22;15.70;;;7.72;;
9384;SDS011;4732;49.340;10.886;2023-03-23T19:51:48;9.85;;;5.47;;
9384;SDS011;4732;49.340;10.886;2023-03-23T19:54:14;5.30;;;3.20;;
9384;SDS011;4732;49.340;10.886;2023-03-23T19:56:39;6.07;;;3.65;;
9384;SDS011;4732;49.340;10.886;2023-03-23T19:59:07;8.82;;;4.97;;
9384;SDS011;4732;49.340;10.886;2023-03-23T20:01:35;5.82;;;3.35;;
9384;SDS011;4732;49.340;10.886;2023-03-23T20:04:00;4.60;;;2.45;;
9384;SDS011;4732;49.340;10.886;2023-03-23T20:06:28;4.80;;;3.28;;
9384;SDS011;4732;49.340;10.886;2023-03-23T20:08:54;3.70;;;2.20;;
9384;SDS011;4732;49.340;10.886;2023-03-23T20:11:20;3.58;;;2.40;;
9384;SDS011;4732;49.340;10.886;2023-03-23T20:13:46;2.63;;;2.20;;
9384;SDS011;4732;49.340;10.886;2023-03-23T20:16:12;3.90;;;2.10;;
9384;SDS011;4732;49.340;10.886;2023-03-23T20:18:39;4.80;;;2.15;;
9384;SDS011;4732;49.340;10.886;2023-03-23T20:21:10;2.72;;;2.40;;
9384;SDS011;4732;49.340;10.886;2023-03-23T20:23:38;2.40;;;2.20;;
9384;SDS011;4732;49.340;10.886;2023-03-23T20:26:07;3.80;;;2.70;;
9384;SDS011;4732;49.340;10.886;2023-03-23T20:28:37;3.35;;;2.63;;
9384;SDS011;4732;49.340;10.886;2023-03-23T20:33:31;6.90;;;3.40;;
9384;SDS011;4732;49.340;10.886;2023-03-23T20:35:57;3.80;;;2.50;;
9384;SDS011;4732;49.340;10.886;2023-03-23T20:38:23;3.13;;;2.40;;
9384;SDS011;4732;49.340;10.886;2023-03-23T20:40:49;5.20;;;2.03;;